sensor_id;sensor_type;location;lat;lon;timestamp;P1;durP1;ratioP1;P2;durP2;ratioP2
44204;SDS011;30163;42.698;23.344;2023-05-07T00:01:03;38.70;;;18.00;;
44204;SDS011;30163;42.698;23.344;2023-05-07T00:03:30;34.10;;;15.57;;
44204;SDS011;30163;42.698;23.344;2023-05-07T00:05:56;24.58;;;14.70;;
44204;SDS011;30163;42.698;23.344;2023-05-07T00:08:21;33.13;;;16.50;;
44204;SDS011;30163;42.698;23.344;2023-05-07T00:10:47;31.63;;;16.73;;
44204;SDS011;30163;42.698;23.344;2023-05-07T00:13:12;32.03;;;14.70;;
44204;SDS011;30163;42.698;23.344;2023-05-07T00:15:38;29.92;;;15.02;;
44204;SDS011;30163;42.698;23.344;2023-05-07T00:18:03;32.30;;;15.27;;
44204;SDS011;30163;42.698;23.344;2023-05-07T00:20:29;31.20;;;15.27;;
44204;SDS011;30163;42.698;23.344;2023-05-07T00:22:54;29.60;;;15.35;;
44204;SDS011;30163;42.698;23.344;2023-05-07T00:25:20;35.50;;;16.00;;
44204;SDS011;30163;42.698;23.344;2023-05-07T00:27:45;27.80;;;14.85;;
44204;SDS011;30163;42.698;23.344;2023-05-07T00:30:11;30.00;;;14.65;;
44204;SDS011;30163;42.698;23.344;2023-05-07T00:32:37;35.13;;;16.17;;
44204;SDS011;30163;42.698;23.344;2023-05-07T00:35:03;33.28;;;15.80;;
44204;SDS011;30163;42.698;23.344;2023-05-07T00:37:28;31.90;;;15.32;;
44204;SDS011;30163;42.698;23.344;2023-05-07T00:39:55;34.28;;;16.33;;
44204;SDS011;30163;42.698;23.344;2023-05-07T00:42:20;28.95;;;14.88;;
44204;SDS011;30163;42.698;23.344;2023-05-07T00:44:45;30.90;;;15.98;;
44204;SDS011;30163;42.698;23.344;2023-05-07T00:47:11;25.70;;;14.18;;
44204;SDS011;30163;42.698;23.344;2023-05-07T00:49:43;23.38;;;12.98;;
44204;SDS011;30163;42.698;23.344;2023-05-07T00:54:36;28.38;;;13.50;;
44204;SDS011;30163;42.698;23.344;2023-05-07T00:57:02;31.92;;;13.38;;
44204;SDS011;30163;42.698;23.344;2023-05-07T00:59:28;25.05;;;13.57;;
44204;SDS011;30163;42.698;23.344;2023-05-07T01:01:54;22.85;;;12.15;;
44204;SDS011;30163;42.698;23.344;2023-05-07T01:04:19;27.58;;;13.77;;
44204;SDS011;30163;42.698;23.344;2023-05-07T01:06:45;23.52;;;11.75;;
44204;SDS011;30163;42.698;23.344;2023-05-07T01:09:11;30.73;;;13.05;;
44204;SDS011;30163;42.698;23.344;2023-05-07T01:11:37;29.65;;;12.73;;
44204;SDS011;30163;42.698;23.344;2023-05-07T01:14:03;31.55;;;13.40;;
44204;SDS011;30163;42.698;23.344;2023-05-07T01:16:28;27.50;;;14.15;;
44204;SDS011;30163;42.698;23.344;2023-05-07T01:18:54;18.80;;;11.02;;
44204;SDS011;30163;42.698;23.344;2023-05-07T01:21:21;23.05;;;11.35;;
44204;SDS011;30163;42.698;23.344;2023-05-07T01:23:51;22.50;;;11.45;;
44204;SDS011;30163;42.698;23.344;2023-05-07T01:26:17;21.40;;;12.90;;
44204;SDS011;30163;42.698;23.344;2023-05-07T01:28:44;26.58;;;13.25;;
44204;SDS011;30163;42.698;23.344;2023-05-07T01:31:10;22.60;;;12.98;;
44204;SDS011;30163;42.698;23.344;2023-05-07T01:33:37;22.35;;;11.13;;
44204;SDS011;30163;42.698;23.344;2023-05-07T01:36:03;22.52;;;12.40;;
44204;SDS011;30163;42.698;23.344;2023-05-07T01:38:31;27.60;;;13.50;;
44204;SDS011;30163;42.698;23.344;2023-05-07T01:40:57;22.73;;;12.63;;
44204;SDS011;30163;42.698;23.344;2023-05-07T01:43:23;21.80;;;11.52;;
44204;SDS011;30163;42.698;23.344;2023-05-07T01:45:48;23.52;;;10.85;;
44204;SDS011;30163;42.698;23.344;2023-05-07T01:48:14;18.67;;;10.75;;
44204;SDS011;30163;42.698;23.344;2023-05-07T01:50:40;18.67;;;9.70;;
44204;SDS011;30163;42.698;23.344;2023-05-07T01:53:06;18.05;;;10.13;;
44204;SDS011;30163;42.698;23.344;2023-05-07T01:55:32;13.07;;;7.90;;
44204;SDS011;30163;42.698;23.344;2023-05-07T01:57:57;17.65;;;9.48;;
44204;SDS011;30163;42.698;23.344;2023-05-07T02:00:22;19.05;;;8.57;;
44204;SDS011;30163;42.698;23.344;2023-05-07T02:02:48;19.58;;;8.57;;
44204;SDS011;30163;42.698;23.344;2023-05-07T02:05:13;23.42;;;7.75;;
44204;SDS011;30163;42.698;23.344;2023-05-07T02:07:39;24.23;;;8.88;;
44204;SDS011;30163;42.698;23.344;2023-05-07T02:10:04;20.45;;;9.02;;
44204;SDS011;30163;42.698;23.344;2023-05-07T02:12:31;19.65;;;8.82;;
44204;SDS011;30163;42.698;23.344;2023-05-07T02:14:56;14.43;;;9.50;;
44204;SDS011;30163;42.698;23.344;2023-05-07T02:17:21;12.82;;;8.43;;
44204;SDS011;30163;42.698;23.344;2023-05-07T02:19:47;18.75;;;9.75;;
44204;SDS011;30163;42.698;23.344;2023-05-07T02:22:12;18.33;;;9.77;;
44204;SDS011;30163;42.698;23.344;2023-05-07T02:24:38;17.45;;;9.52;;
44204;SDS011;30163;42.698;23.344;2023-05-07T02:27:03;18.35;;;10.30;;
44204;SDS011;30163;42.698;23.344;2023-05-07T02:29:29;18.95;;;9.80;;
44204;SDS011;30163;42.698;23.344;2023-05-07T02:31:54;14.80;;;8.70;;
44204;SDS011;30163;42.698;23.344;2023-05-07T02:34:20;19.05;;;10.15;;
44204;SDS011;30163;42.698;23.344;2023-05-07T02:36:45;21.83;;;9.50;;
44204;SDS011;30163;42.698;23.344;2023-05-07T02:39:12;17.98;;;10.38;;
44204;SDS011;30163;42.698;23.344;2023-05-07T02:41:37;16.70;;;9.57;;
44204;SDS011;30163;42.698;23.344;2023-05-07T02:44:03;22.83;;;10.65;;
44204;SDS011;30163;42.698;23.344;2023-05-07T02:46:28;20.40;;;11.20;;
44204;SDS011;30163;42.698;23.344;2023-05-07T02:48:54;25.77;;;12.25;;
44204;SDS011;30163;42.698;23.344;2023-05-07T02:51:20;21.35;;;11.80;;
44204;SDS011;30163;42.698;23.344;2023-05-07T02:53:46;22.40;;;11.60;;
44204;SDS011;30163;42.698;23.344;2023-05-07T02:56:12;25.65;;;11.55;;
44204;SDS011;30163;42.698;23.344;2023-05-07T02:58:37;20.25;;;10.95;;
44204;SDS011;30163;42.698;23.344;2023-05-07T03:01:04;24.38;;;12.68;;
44204;SDS011;30163;42.698;23.344;2023-05-07T03:03:30;24.27;;;12.18;;
44204;SDS011;30163;42.698;23.344;2023-05-07T03:05:55;22.75;;;12.85;;
44204;SDS011;30163;42.698;23.344;2023-05-07T03:08:21;21.08;;;12.00;;
44204;SDS011;30163;42.698;23.344;2023-05-07T03:10:46;24.63;;;12.60;;
44204;SDS011;30163;42.698;23.344;2023-05-07T03:13:12;23.35;;;11.93;;
44204;SDS011;30163;42.698;23.344;2023-05-07T03:15:37;25.83;;;11.80;;
44204;SDS011;30163;42.698;23.344;2023-05-07T03:18:03;22.42;;;12.80;;
44204;SDS011;30163;42.698;23.344;2023-05-07T03:20:28;24.75;;;13.55;;
44204;SDS011;30163;42.698;23.344;2023-05-07T03:22:54;29.42;;;12.45;;
44204;SDS011;30163;42.698;23.344;2023-05-07T03:25:19;30.00;;;13.95;;
44204;SDS011;30163;42.698;23.344;2023-05-07T03:27:44;34.35;;;14.55;;
44204;SDS011;30163;42.698;23.344;2023-05-07T03:30:10;26.55;;;13.95;;
44204;SDS011;30163;42.698;23.344;2023-05-07T03:32:36;25.83;;;14.57;;
44204;SDS011;30163;42.698;23.344;2023-05-07T03:35:01;27.23;;;14.65;;
44204;SDS011;30163;42.698;23.344;2023-05-07T03:37:27;27.60;;;13.90;;
44204;SDS011;30163;42.698;23.344;2023-05-07T03:39:53;27.05;;;15.18;;
44204;SDS011;30163;42.698;23.344;2023-05-07T03:42:18;28.38;;;12.90;;
44204;SDS011;30163;42.698;23.344;2023-05-07T03:44:43;25.35;;;12.88;;
44204;SDS011;30163;42.698;23.344;2023-05-07T03:47:09;32.33;;;13.40;;
44204;SDS011;30163;42.698;23.344;2023-05-07T03:49:35;19.40;;;12.43;;
44204;SDS011;30163;42.698;23.344;2023-05-07T03:52:01;21.65;;;11.63;;
44204;SDS011;30163;42.698;23.344;2023-05-07T03:54:26;26.73;;;12.57;;
44204;SDS011;30163;42.698;23.344;2023-05-07T03:56:51;23.08;;;12.07;;
44204;SDS011;30163;42.698;23.344;2023-05-07T03:59:17;19.50;;;11.30;;
44204;SDS011;30163;42.698;23.344;2023-05-07T04:01:42;29.40;;;11.60;;
44204;SDS011;30163;42.698;23.344;2023-05-07T04:04:07;22.00;;;12.48;;
44204;SDS011;30163;42.698;23.344;2023-05-07T04:06:33;21.50;;;11.75;;
44204;SDS011;30163;42.698;23.344;2023-05-07T04:08:58;22.42;;;12.00;;
44204;SDS011;30163;42.698;23.344;2023-05-07T04:11:24;21.45;;;11.60;;
44204;SDS011;30163;42.698;23.344;2023-05-07T04:13:50;22.77;;;9.93;;
44204;SDS011;30163;42.698;23.344;2023-05-07T04:16:15;16.00;;;8.82;;
44204;SDS011;30163;42.698;23.344;2023-05-07T04:18:40;15.65;;;8.68;;
44204;SDS011;30163;42.698;23.344;2023-05-07T04:21:13;16.15;;;7.57;;
44204;SDS011;30163;42.698;23.344;2023-05-07T04:23:39;12.57;;;8.73;;
44204;SDS011;30163;42.698;23.344;2023-05-07T04:26:05;15.15;;;8.30;;
44204;SDS011;30163;42.698;23.344;2023-05-07T04:28:30;25.23;;;9.30;;
44204;SDS011;30163;42.698;23.344;2023-05-07T04:30:55;15.73;;;8.55;;
44204;SDS011;30163;42.698;23.344;2023-05-07T04:33:21;19.23;;;8.18;;
44204;SDS011;30163;42.698;23.344;2023-05-07T04:35:46;14.52;;;7.85;;
44204;SDS011;30163;42.698;23.344;2023-05-07T04:38:11;16.38;;;9.05;;
44204;SDS011;30163;42.698;23.344;2023-05-07T04:40:37;22.27;;;11.13;;
44204;SDS011;30163;42.698;23.344;2023-05-07T04:43:03;20.40;;;11.43;;
44204;SDS011;30163;42.698;23.344;2023-05-07T04:45:29;19.40;;;10.68;;
44204;SDS011;30163;42.698;23.344;2023-05-07T04:47:55;24.48;;;11.82;;
44204;SDS011;30163;42.698;23.344;2023-05-07T04:50:20;27.27;;;14.27;;
44204;SDS011;30163;42.698;23.344;2023-05-07T04:52:48;20.55;;;12.10;;
44204;SDS011;30163;42.698;23.344;2023-05-07T04:55:13;21.98;;;12.10;;
44204;SDS011;30163;42.698;23.344;2023-05-07T04:57:39;19.17;;;11.30;;
44204;SDS011;30163;42.698;23.344;2023-05-07T05:00:06;18.52;;;11.27;;
44204;SDS011;30163;42.698;23.344;2023-05-07T05:02:33;19.45;;;10.68;;
44204;SDS011;30163;42.698;23.344;2023-05-07T05:04:59;22.40;;;9.77;;
44204;SDS011;30163;42.698;23.344;2023-05-07T05:07:26;20.00;;;9.00;;
44204;SDS011;30163;42.698;23.344;2023-05-07T05:09:51;15.50;;;8.32;;
44204;SDS011;30163;42.698;23.344;2023-05-07T05:12:17;16.92;;;9.40;;
44204;SDS011;30163;42.698;23.344;2023-05-07T05:14:42;15.90;;;9.40;;
44204;SDS011;30163;42.698;23.344;2023-05-07T05:17:07;14.93;;;8.73;;
44204;SDS011;30163;42.698;23.344;2023-05-07T05:19:34;17.67;;;9.80;;
44204;SDS011;30163;42.698;23.344;2023-05-07T05:21:59;16.63;;;10.25;;
44204;SDS011;30163;42.698;23.344;2023-05-07T05:24:26;15.40;;;9.55;;
44204;SDS011;30163;42.698;23.344;2023-05-07T05:26:52;18.13;;;10.35;;
44204;SDS011;30163;42.698;23.344;2023-05-07T05:29:18;20.42;;;10.63;;
44204;SDS011;30163;42.698;23.344;2023-05-07T05:31:44;20.70;;;9.57;;
44204;SDS011;30163;42.698;23.344;2023-05-07T05:34:09;17.40;;;9.93;;
44204;SDS011;30163;42.698;23.344;2023-05-07T05:36:34;17.10;;;10.60;;
44204;SDS011;30163;42.698;23.344;2023-05-07T05:39:00;15.18;;;9.63;;
44204;SDS011;30163;42.698;23.344;2023-05-07T05:41:25;18.88;;;10.90;;
44204;SDS011;30163;42.698;23.344;2023-05-07T05:43:51;17.50;;;10.52;;
44204;SDS011;30163;42.698;23.344;2023-05-07T05:46:16;19.58;;;11.40;;
44204;SDS011;30163;42.698;23.344;2023-05-07T05:48:41;18.23;;;11.05;;
44204;SDS011;30163;42.698;23.344;2023-05-07T05:51:07;18.88;;;11.63;;
44204;SDS011;30163;42.698;23.344;2023-05-07T05:53:32;22.15;;;11.25;;
44204;SDS011;30163;42.698;23.344;2023-05-07T05:55:58;21.83;;;11.07;;
44204;SDS011;30163;42.698;23.344;2023-05-07T05:58:23;18.17;;;10.70;;
44204;SDS011;30163;42.698;23.344;2023-05-07T06:00:48;20.95;;;11.27;;
44204;SDS011;30163;42.698;23.344;2023-05-07T06:03:17;19.02;;;11.50;;
44204;SDS011;30163;42.698;23.344;2023-05-07T06:05:42;21.20;;;11.68;;
44204;SDS011;30163;42.698;23.344;2023-05-07T06:08:07;17.55;;;10.68;;
44204;SDS011;30163;42.698;23.344;2023-05-07T06:10:33;22.17;;;12.88;;
44204;SDS011;30163;42.698;23.344;2023-05-07T06:12:58;22.95;;;11.32;;
44204;SDS011;30163;42.698;23.344;2023-05-07T06:15:23;21.48;;;11.70;;
44204;SDS011;30163;42.698;23.344;2023-05-07T06:17:49;18.48;;;12.25;;
44204;SDS011;30163;42.698;23.344;2023-05-07T06:20:14;17.38;;;10.65;;
44204;SDS011;30163;42.698;23.344;2023-05-07T06:22:40;17.33;;;10.82;;
44204;SDS011;30163;42.698;23.344;2023-05-07T06:25:05;31.33;;;11.10;;
44204;SDS011;30163;42.698;23.344;2023-05-07T06:27:31;18.42;;;10.65;;
44204;SDS011;30163;42.698;23.344;2023-05-07T06:29:57;15.93;;;11.10;;
44204;SDS011;30163;42.698;23.344;2023-05-07T06:32:22;19.23;;;11.20;;
44204;SDS011;30163;42.698;23.344;2023-05-07T06:34:47;21.45;;;10.45;;
44204;SDS011;30163;42.698;23.344;2023-05-07T06:37:13;22.05;;;10.77;;
44204;SDS011;30163;42.698;23.344;2023-05-07T06:39:38;18.73;;;11.40;;
44204;SDS011;30163;42.698;23.344;2023-05-07T06:42:04;16.73;;;10.27;;
44204;SDS011;30163;42.698;23.344;2023-05-07T06:44:30;22.38;;;11.57;;
44204;SDS011;30163;42.698;23.344;2023-05-07T06:46:55;18.70;;;10.80;;
44204;SDS011;30163;42.698;23.344;2023-05-07T06:49:21;25.95;;;12.18;;
44204;SDS011;30163;42.698;23.344;2023-05-07T06:51:46;20.25;;;10.75;;
44204;SDS011;30163;42.698;23.344;2023-05-07T06:54:12;17.27;;;10.52;;
44204;SDS011;30163;42.698;23.344;2023-05-07T06:56:37;19.98;;;10.55;;
44204;SDS011;30163;42.698;23.344;2023-05-07T06:59:03;16.58;;;9.82;;
44204;SDS011;30163;42.698;23.344;2023-05-07T07:01:28;14.48;;;9.55;;
44204;SDS011;30163;42.698;23.344;2023-05-07T07:03:54;26.38;;;11.48;;
44204;SDS011;30163;42.698;23.344;2023-05-07T07:06:19;20.02;;;11.30;;
44204;SDS011;30163;42.698;23.344;2023-05-07T07:08:45;20.00;;;10.82;;
44204;SDS011;30163;42.698;23.344;2023-05-07T07:11:10;20.30;;;11.63;;
44204;SDS011;30163;42.698;23.344;2023-05-07T07:13:35;32.25;;;11.30;;
44204;SDS011;30163;42.698;23.344;2023-05-07T07:16:01;25.70;;;11.43;;
44204;SDS011;30163;42.698;23.344;2023-05-07T07:18:26;21.73;;;11.23;;
44204;SDS011;30163;42.698;23.344;2023-05-07T07:20:52;18.58;;;10.57;;
44204;SDS011;30163;42.698;23.344;2023-05-07T07:23:18;23.98;;;11.65;;
44204;SDS011;30163;42.698;23.344;2023-05-07T07:25:43;18.60;;;10.75;;
44204;SDS011;30163;42.698;23.344;2023-05-07T07:28:09;20.05;;;11.48;;
44204;SDS011;30163;42.698;23.344;2023-05-07T07:30:35;16.58;;;10.13;;
44204;SDS011;30163;42.698;23.344;2023-05-07T07:33:01;25.80;;;11.93;;
44204;SDS011;30163;42.698;23.344;2023-05-07T07:35:28;17.70;;;10.57;;
44204;SDS011;30163;42.698;23.344;2023-05-07T07:37:54;24.02;;;10.10;;
44204;SDS011;30163;42.698;23.344;2023-05-07T07:40:19;19.35;;;9.73;;
44204;SDS011;30163;42.698;23.344;2023-05-07T07:42:45;21.17;;;9.85;;
44204;SDS011;30163;42.698;23.344;2023-05-07T07:45:10;20.65;;;9.80;;
44204;SDS011;30163;42.698;23.344;2023-05-07T07:47:36;16.73;;;9.75;;
44204;SDS011;30163;42.698;23.344;2023-05-07T07:50:02;16.60;;;9.95;;
44204;SDS011;30163;42.698;23.344;2023-05-07T07:52:27;19.98;;;10.95;;
44204;SDS011;30163;42.698;23.344;2023-05-07T07:54:53;17.02;;;8.95;;
44204;SDS011;30163;42.698;23.344;2023-05-07T07:57:18;19.63;;;10.23;;
44204;SDS011;30163;42.698;23.344;2023-05-07T07:59:43;17.17;;;9.60;;
44204;SDS011;30163;42.698;23.344;2023-05-07T08:02:09;16.70;;;8.60;;
44204;SDS011;30163;42.698;23.344;2023-05-07T08:04:34;19.48;;;10.15;;
44204;SDS011;30163;42.698;23.344;2023-05-07T08:07:02;18.02;;;9.77;;
44204;SDS011;30163;42.698;23.344;2023-05-07T08:09:27;18.55;;;10.73;;
44204;SDS011;30163;42.698;23.344;2023-05-07T08:11:52;15.15;;;8.45;;
44204;SDS011;30163;42.698;23.344;2023-05-07T08:14:18;16.23;;;8.13;;
44204;SDS011;30163;42.698;23.344;2023-05-07T08:16:43;14.32;;;9.02;;
44204;SDS011;30163;42.698;23.344;2023-05-07T08:19:09;14.43;;;9.80;;
44204;SDS011;30163;42.698;23.344;2023-05-07T08:21:38;16.25;;;8.77;;
44204;SDS011;30163;42.698;23.344;2023-05-07T08:24:04;19.83;;;9.02;;
44204;SDS011;30163;42.698;23.344;2023-05-07T08:26:29;16.45;;;9.00;;
44204;SDS011;30163;42.698;23.344;2023-05-07T08:28:55;17.60;;;9.88;;
44204;SDS011;30163;42.698;23.344;2023-05-07T08:31:20;14.10;;;8.57;;
44204;SDS011;30163;42.698;23.344;2023-05-07T08:33:46;16.17;;;8.10;;
44204;SDS011;30163;42.698;23.344;2023-05-07T08:36:11;17.58;;;8.48;;
44204;SDS011;30163;42.698;23.344;2023-05-07T08:38:37;15.68;;;8.38;;
44204;SDS011;30163;42.698;23.344;2023-05-07T08:41:03;18.33;;;9.95;;
44204;SDS011;30163;42.698;23.344;2023-05-07T08:43:28;16.60;;;8.52;;
44204;SDS011;30163;42.698;23.344;2023-05-07T08:45:54;13.73;;;8.25;;
44204;SDS011;30163;42.698;23.344;2023-05-07T08:48:21;15.70;;;8.60;;
44204;SDS011;30163;42.698;23.344;2023-05-07T08:50:47;17.17;;;7.97;;
44204;SDS011;30163;42.698;23.344;2023-05-07T08:53:12;12.55;;;7.75;;
44204;SDS011;30163;42.698;23.344;2023-05-07T08:55:38;14.80;;;7.93;;
44204;SDS011;30163;42.698;23.344;2023-05-07T08:58:04;14.85;;;7.60;;
44204;SDS011;30163;42.698;23.344;2023-05-07T09:00:30;10.38;;;5.63;;
44204;SDS011;30163;42.698;23.344;2023-05-07T09:02:55;9.23;;;5.20;;
44204;SDS011;30163;42.698;23.344;2023-05-07T09:05:21;11.15;;;6.63;;
44204;SDS011;30163;42.698;23.344;2023-05-07T09:07:46;9.18;;;5.15;;
44204;SDS011;30163;42.698;23.344;2023-05-07T09:10:12;7.28;;;5.47;;
44204;SDS011;30163;42.698;23.344;2023-05-07T09:12:37;7.68;;;5.20;;
44204;SDS011;30163;42.698;23.344;2023-05-07T09:15:04;12.02;;;4.75;;
44204;SDS011;30163;42.698;23.344;2023-05-07T09:17:30;10.77;;;5.53;;
44204;SDS011;30163;42.698;23.344;2023-05-07T09:19:56;11.25;;;5.60;;
44204;SDS011;30163;42.698;23.344;2023-05-07T09:22:21;10.15;;;5.68;;
44204;SDS011;30163;42.698;23.344;2023-05-07T09:24:47;10.70;;;5.70;;
44204;SDS011;30163;42.698;23.344;2023-05-07T09:27:14;8.57;;;4.85;;
44204;SDS011;30163;42.698;23.344;2023-05-07T09:29:39;12.93;;;5.25;;
44204;SDS011;30163;42.698;23.344;2023-05-07T09:32:05;7.82;;;4.60;;
44204;SDS011;30163;42.698;23.344;2023-05-07T09:34:31;12.73;;;5.55;;
44204;SDS011;30163;42.698;23.344;2023-05-07T09:37:03;11.23;;;5.55;;
44204;SDS011;30163;42.698;23.344;2023-05-07T09:39:42;7.25;;;4.32;;
44204;SDS011;30163;42.698;23.344;2023-05-07T09:42:08;7.28;;;4.30;;
44204;SDS011;30163;42.698;23.344;2023-05-07T09:44:34;8.18;;;4.57;;
44204;SDS011;30163;42.698;23.344;2023-05-07T09:47:00;7.15;;;4.80;;
44204;SDS011;30163;42.698;23.344;2023-05-07T09:49:28;5.53;;;4.22;;
44204;SDS011;30163;42.698;23.344;2023-05-07T09:51:55;10.02;;;4.28;;
44204;SDS011;30163;42.698;23.344;2023-05-07T09:54:21;10.27;;;4.80;;
44204;SDS011;30163;42.698;23.344;2023-05-07T09:56:48;5.03;;;3.83;;
44204;SDS011;30163;42.698;23.344;2023-05-07T09:59:14;6.53;;;3.88;;
44204;SDS011;30163;42.698;23.344;2023-05-07T10:01:41;7.70;;;4.50;;
44204;SDS011;30163;42.698;23.344;2023-05-07T10:04:07;8.05;;;4.85;;
44204;SDS011;30163;42.698;23.344;2023-05-07T10:06:34;6.82;;;4.35;;
44204;SDS011;30163;42.698;23.344;2023-05-07T10:09:00;6.43;;;3.75;;
44204;SDS011;30163;42.698;23.344;2023-05-07T10:11:27;7.72;;;3.50;;
44204;SDS011;30163;42.698;23.344;2023-05-07T10:13:53;4.68;;;3.55;;
44204;SDS011;30163;42.698;23.344;2023-05-07T10:16:19;6.25;;;3.80;;
44204;SDS011;30163;42.698;23.344;2023-05-07T10:18:45;5.20;;;3.88;;
44204;SDS011;30163;42.698;23.344;2023-05-07T10:21:12;10.52;;;3.83;;
44204;SDS011;30163;42.698;23.344;2023-05-07T10:23:49;9.00;;;3.85;;
44204;SDS011;30163;42.698;23.344;2023-05-07T10:26:17;4.50;;;2.75;;
44204;SDS011;30163;42.698;23.344;2023-05-07T10:28:44;7.50;;;3.13;;
44204;SDS011;30163;42.698;23.344;2023-05-07T10:34:14;7.00;;;3.50;;
44204;SDS011;30163;42.698;23.344;2023-05-07T10:36:42;7.55;;;3.33;;
44204;SDS011;30163;42.698;23.344;2023-05-07T10:39:08;5.55;;;3.30;;
44204;SDS011;30163;42.698;23.344;2023-05-07T10:41:33;5.95;;;4.32;;
44204;SDS011;30163;42.698;23.344;2023-05-07T10:43:59;5.90;;;3.90;;
44204;SDS011;30163;42.698;23.344;2023-05-07T10:46:27;8.70;;;3.22;;
44204;SDS011;30163;42.698;23.344;2023-05-07T10:51:33;8.70;;;3.53;;
44204;SDS011;30163;42.698;23.344;2023-05-07T10:56:37;6.07;;;3.47;;
44204;SDS011;30163;42.698;23.344;2023-05-07T11:01:56;5.35;;;3.70;;
44204;SDS011;30163;42.698;23.344;2023-05-07T11:04:27;6.72;;;3.47;;
44204;SDS011;30163;42.698;23.344;2023-05-07T11:17:32;4.70;;;3.15;;
44204;SDS011;30163;42.698;23.344;2023-05-07T11:19:59;4.55;;;3.22;;
44204;SDS011;30163;42.698;23.344;2023-05-07T11:25:04;7.95;;;2.80;;
44204;SDS011;30163;42.698;23.344;2023-05-07T11:27:30;8.27;;;2.78;;
44204;SDS011;30163;42.698;23.344;2023-05-07T11:29:56;4.70;;;3.10;;
44204;SDS011;30163;42.698;23.344;2023-05-07T11:32:25;4.25;;;2.67;;
44204;SDS011;30163;42.698;23.344;2023-05-07T11:34:52;4.80;;;3.42;;
44204;SDS011;30163;42.698;23.344;2023-05-07T11:37:22;5.57;;;3.15;;
44204;SDS011;30163;42.698;23.344;2023-05-07T11:39:48;5.13;;;2.60;;
44204;SDS011;30163;42.698;23.344;2023-05-07T11:44:55;3.50;;;2.72;;
44204;SDS011;30163;42.698;23.344;2023-05-07T11:47:20;4.50;;;2.90;;
44204;SDS011;30163;42.698;23.344;2023-05-07T11:49:47;6.38;;;3.28;;
44204;SDS011;30163;42.698;23.344;2023-05-07T11:52:14;4.05;;;2.90;;
44204;SDS011;30163;42.698;23.344;2023-05-07T11:54:39;6.65;;;3.40;;
44204;SDS011;30163;42.698;23.344;2023-05-07T11:57:05;6.65;;;3.35;;
44204;SDS011;30163;42.698;23.344;2023-05-07T11:59:39;4.63;;;3.15;;
44204;SDS011;30163;42.698;23.344;2023-05-07T12:02:05;4.55;;;3.05;;
44204;SDS011;30163;42.698;23.344;2023-05-07T12:04:32;6.95;;;3.33;;
44204;SDS011;30163;42.698;23.344;2023-05-07T12:06:57;3.97;;;3.05;;
44204;SDS011;30163;42.698;23.344;2023-05-07T12:09:23;8.65;;;3.80;;
44204;SDS011;30163;42.698;23.344;2023-05-07T12:11:48;3.25;;;2.80;;
44204;SDS011;30163;42.698;23.344;2023-05-07T12:14:14;4.35;;;3.47;;
44204;SDS011;30163;42.698;23.344;2023-05-07T12:16:45;3.65;;;2.60;;
44204;SDS011;30163;42.698;23.344;2023-05-07T12:19:18;8.73;;;3.53;;
44204;SDS011;30163;42.698;23.344;2023-05-07T12:21:43;4.10;;;3.00;;
44204;SDS011;30163;42.698;23.344;2023-05-07T12:24:11;4.53;;;2.92;;
44204;SDS011;30163;42.698;23.344;2023-05-07T12:26:39;3.20;;;2.15;;
44204;SDS011;30163;42.698;23.344;2023-05-07T12:29:10;10.38;;;2.70;;
44204;SDS011;30163;42.698;23.344;2023-05-07T12:31:35;4.70;;;2.30;;
44204;SDS011;30163;42.698;23.344;2023-05-07T12:34:03;3.20;;;2.13;;
44204;SDS011;30163;42.698;23.344;2023-05-07T12:36:36;4.18;;;2.50;;
44204;SDS011;30163;42.698;23.344;2023-05-07T12:39:07;4.95;;;2.13;;
44204;SDS011;30163;42.698;23.344;2023-05-07T12:41:53;3.47;;;2.50;;
44204;SDS011;30163;42.698;23.344;2023-05-07T12:44:23;3.15;;;2.38;;
44204;SDS011;30163;42.698;23.344;2023-05-07T12:46:58;3.50;;;2.60;;
44204;SDS011;30163;42.698;23.344;2023-05-07T12:49:26;6.45;;;2.30;;
44204;SDS011;30163;42.698;23.344;2023-05-07T12:51:59;3.58;;;2.30;;
44204;SDS011;30163;42.698;23.344;2023-05-07T12:54:31;8.02;;;2.70;;
44204;SDS011;30163;42.698;23.344;2023-05-07T12:57:15;4.68;;;2.78;;
44204;SDS011;30163;42.698;23.344;2023-05-07T12:59:44;4.55;;;2.83;;
44204;SDS011;30163;42.698;23.344;2023-05-07T13:02:12;3.55;;;2.35;;
44204;SDS011;30163;42.698;23.344;2023-05-07T13:04:37;3.03;;;1.98;;
44204;SDS011;30163;42.698;23.344;2023-05-07T13:07:03;2.80;;;2.20;;
44204;SDS011;30163;42.698;23.344;2023-05-07T13:09:28;3.72;;;2.08;;
44204;SDS011;30163;42.698;23.344;2023-05-07T13:11:55;2.80;;;2.28;;
44204;SDS011;30163;42.698;23.344;2023-05-07T13:14:20;2.78;;;2.10;;
44204;SDS011;30163;42.698;23.344;2023-05-07T13:16:49;4.25;;;2.33;;
44204;SDS011;30163;42.698;23.344;2023-05-07T13:19:14;3.47;;;2.35;;
44204;SDS011;30163;42.698;23.344;2023-05-07T13:21:40;3.20;;;2.35;;
44204;SDS011;30163;42.698;23.344;2023-05-07T13:24:05;4.82;;;3.10;;
44204;SDS011;30163;42.698;23.344;2023-05-07T13:26:31;6.47;;;2.63;;
44204;SDS011;30163;42.698;23.344;2023-05-07T13:28:59;3.38;;;2.55;;
44204;SDS011;30163;42.698;23.344;2023-05-07T13:31:24;3.75;;;2.45;;
44204;SDS011;30163;42.698;23.344;2023-05-07T13:33:50;5.13;;;2.95;;
44204;SDS011;30163;42.698;23.344;2023-05-07T13:36:17;3.30;;;2.55;;
44204;SDS011;30163;42.698;23.344;2023-05-07T13:38:46;3.58;;;2.28;;
44204;SDS011;30163;42.698;23.344;2023-05-07T13:41:12;2.92;;;2.25;;
44204;SDS011;30163;42.698;23.344;2023-05-07T13:43:40;4.97;;;2.70;;
44204;SDS011;30163;42.698;23.344;2023-05-07T13:46:13;4.95;;;2.45;;
44204;SDS011;30163;42.698;23.344;2023-05-07T13:48:42;3.38;;;2.38;;
44204;SDS011;30163;42.698;23.344;2023-05-07T13:51:07;3.28;;;2.65;;
44204;SDS011;30163;42.698;23.344;2023-05-07T13:53:36;3.35;;;2.30;;
44204;SDS011;30163;42.698;23.344;2023-05-07T13:56:05;4.50;;;2.70;;
44204;SDS011;30163;42.698;23.344;2023-05-07T13:58:33;3.75;;;2.70;;
44204;SDS011;30163;42.698;23.344;2023-05-07T14:01:01;4.30;;;2.83;;
44204;SDS011;30163;42.698;23.344;2023-05-07T14:03:27;3.60;;;2.55;;
44204;SDS011;30163;42.698;23.344;2023-05-07T14:05:58;5.03;;;2.80;;
44204;SDS011;30163;42.698;23.344;2023-05-07T14:08:28;3.45;;;2.22;;
44204;SDS011;30163;42.698;23.344;2023-05-07T14:10:53;3.88;;;2.75;;
44204;SDS011;30163;42.698;23.344;2023-05-07T14:13:21;4.05;;;2.30;;
44204;SDS011;30163;42.698;23.344;2023-05-07T14:15:47;3.65;;;2.55;;
44204;SDS011;30163;42.698;23.344;2023-05-07T14:18:14;10.55;;;2.95;;
44204;SDS011;30163;42.698;23.344;2023-05-07T14:20:40;4.63;;;2.75;;
44204;SDS011;30163;42.698;23.344;2023-05-07T14:23:12;6.63;;;2.90;;
44204;SDS011;30163;42.698;23.344;2023-05-07T14:25:37;4.07;;;2.53;;
44204;SDS011;30163;42.698;23.344;2023-05-07T14:28:06;3.50;;;2.45;;
44204;SDS011;30163;42.698;23.344;2023-05-07T14:30:34;7.78;;;2.83;;
44204;SDS011;30163;42.698;23.344;2023-05-07T14:33:11;3.85;;;2.63;;
44204;SDS011;30163;42.698;23.344;2023-05-07T14:35:36;4.38;;;2.47;;
44204;SDS011;30163;42.698;23.344;2023-05-07T14:38:04;4.85;;;2.53;;
44204;SDS011;30163;42.698;23.344;2023-05-07T14:40:35;3.60;;;2.43;;
44204;SDS011;30163;42.698;23.344;2023-05-07T14:43:03;3.67;;;2.33;;
44204;SDS011;30163;42.698;23.344;2023-05-07T14:45:40;6.95;;;3.05;;